sensor_id;sensor_type;location;lat;lon;timestamp;P1;durP1;ratioP1;P2;durP2;ratioP2
4096;SDS011;2062;50.694;7.246;2022-12-18T00:02:03;11.13;;;3.33;;
4096;SDS011;2062;50.694;7.246;2022-12-18T00:04:32;10.88;;;3.90;;
4096;SDS011;2062;50.694;7.246;2022-12-18T00:06:58;10.43;;;4.35;;
4096;SDS011;2062;50.694;7.246;2022-12-18T00:09:25;12.27;;;3.83;;
4096;SDS011;2062;50.694;7.246;2022-12-18T00:11:52;11.30;;;3.85;;
4096;SDS011;2062;50.694;7.246;2022-12-18T00:14:19;13.67;;;4.27;;
4096;SDS011;2062;50.694;7.246;2022-12-18T00:16:46;14.32;;;5.15;;
4096;SDS011;2062;50.694;7.246;2022-12-18T00:19:13;14.80;;;5.20;;
4096;SDS011;2062;50.694;7.246;2022-12-18T00:21:42;14.00;;;4.80;;
4096;SDS011;2062;50.694;7.246;2022-12-18T00:24:10;12.65;;;4.28;;
4096;SDS011;2062;50.694;7.246;2022-12-18T00:26:37;11.10;;;4.00;;
4096;SDS011;2062;50.694;7.246;2022-12-18T00:29:06;10.73;;;3.60;;
4096;SDS011;2062;50.694;7.246;2022-12-18T00:31:34;10.80;;;3.95;;
4096;SDS011;2062;50.694;7.246;2022-12-18T00:34:01;9.23;;;3.90;;
4096;SDS011;2062;50.694;7.246;2022-12-18T00:36:29;11.00;;;4.15;;
4096;SDS011;2062;50.694;7.246;2022-12-18T00:39:00;12.97;;;4.73;;
4096;SDS011;2062;50.694;7.246;2022-12-18T00:41:27;13.52;;;4.30;;
4096;SDS011;2062;50.694;7.246;2022-12-18T00:44:12;11.65;;;4.20;;
4096;SDS011;2062;50.694;7.246;2022-12-18T00:46:41;11.23;;;4.20;;
4096;SDS011;2062;50.694;7.246;2022-12-18T00:49:08;9.45;;;3.53;;
4096;SDS011;2062;50.694;7.246;2022-12-18T00:51:39;13.10;;;4.33;;
4096;SDS011;2062;50.694;7.246;2022-12-18T00:54:08;13.55;;;4.63;;
4096;SDS011;2062;50.694;7.246;2022-12-18T00:56:35;12.73;;;4.32;;
4096;SDS011;2062;50.694;7.246;2022-12-18T00:59:03;13.38;;;4.15;;
4096;SDS011;2062;50.694;7.246;2022-12-18T01:01:30;13.73;;;4.82;;
4096;SDS011;2062;50.694;7.246;2022-12-18T01:03:57;12.70;;;4.73;;
4096;SDS011;2062;50.694;7.246;2022-12-18T01:06:25;13.07;;;4.50;;
4096;SDS011;2062;50.694;7.246;2022-12-18T01:08:51;14.00;;;5.03;;
4096;SDS011;2062;50.694;7.246;2022-12-18T01:11:20;15.20;;;4.80;;
4096;SDS011;2062;50.694;7.246;2022-12-18T01:13:47;12.32;;;4.50;;
4096;SDS011;2062;50.694;7.246;2022-12-18T01:16:15;13.17;;;4.80;;
4096;SDS011;2062;50.694;7.246;2022-12-18T01:18:43;11.55;;;4.20;;
4096;SDS011;2062;50.694;7.246;2022-12-18T01:21:10;13.23;;;4.88;;
4096;SDS011;2062;50.694;7.246;2022-12-18T01:23:38;12.15;;;4.53;;
4096;SDS011;2062;50.694;7.246;2022-12-18T01:26:05;13.48;;;4.82;;
4096;SDS011;2062;50.694;7.246;2022-12-18T01:28:34;12.00;;;4.63;;
4096;SDS011;2062;50.694;7.246;2022-12-18T01:31:10;13.20;;;4.85;;
4096;SDS011;2062;50.694;7.246;2022-12-18T01:33:38;13.32;;;4.78;;
4096;SDS011;2062;50.694;7.246;2022-12-18T01:36:05;13.95;;;4.60;;
4096;SDS011;2062;50.694;7.246;2022-12-18T01:38:32;11.52;;;4.38;;
4096;SDS011;2062;50.694;7.246;2022-12-18T01:40:59;13.73;;;5.10;;
4096;SDS011;2062;50.694;7.246;2022-12-18T01:46:10;16.77;;;5.38;;
4096;SDS011;2062;50.694;7.246;2022-12-18T01:48:38;11.20;;;4.60;;
4096;SDS011;2062;50.694;7.246;2022-12-18T01:51:06;16.35;;;5.13;;
4096;SDS011;2062;50.694;7.246;2022-12-18T01:53:35;14.63;;;5.73;;
4096;SDS011;2062;50.694;7.246;2022-12-18T01:56:03;14.13;;;4.93;;
4096;SDS011;2062;50.694;7.246;2022-12-18T01:58:32;13.75;;;5.53;;
4096;SDS011;2062;50.694;7.246;2022-12-18T02:01:07;12.38;;;4.15;;
4096;SDS011;2062;50.694;7.246;2022-12-18T02:03:34;13.02;;;4.63;;
4096;SDS011;2062;50.694;7.246;2022-12-18T02:06:03;13.07;;;4.67;;
4096;SDS011;2062;50.694;7.246;2022-12-18T02:08:39;12.80;;;4.72;;
4096;SDS011;2062;50.694;7.246;2022-12-18T02:11:13;14.27;;;4.90;;
4096;SDS011;2062;50.694;7.246;2022-12-18T02:13:46;15.27;;;5.15;;
4096;SDS011;2062;50.694;7.246;2022-12-18T02:16:21;14.20;;;4.53;;
4096;SDS011;2062;50.694;7.246;2022-12-18T02:18:54;12.27;;;4.47;;
4096;SDS011;2062;50.694;7.246;2022-12-18T02:21:26;13.48;;;4.72;;
4096;SDS011;2062;50.694;7.246;2022-12-18T02:24:02;14.02;;;4.43;;
4096;SDS011;2062;50.694;7.246;2022-12-18T02:26:42;14.63;;;4.88;;
4096;SDS011;2062;50.694;7.246;2022-12-18T02:29:13;14.40;;;4.93;;
4096;SDS011;2062;50.694;7.246;2022-12-18T02:31:43;17.30;;;5.63;;
4096;SDS011;2062;50.694;7.246;2022-12-18T02:34:14;15.13;;;4.93;;
4096;SDS011;2062;50.694;7.246;2022-12-18T02:36:43;13.00;;;5.10;;
4096;SDS011;2062;50.694;7.246;2022-12-18T02:39:12;17.50;;;5.65;;
4096;SDS011;2062;50.694;7.246;2022-12-18T02:41:41;16.52;;;5.57;;
4096;SDS011;2062;50.694;7.246;2022-12-18T02:44:09;14.03;;;4.70;;
4096;SDS011;2062;50.694;7.246;2022-12-18T02:46:39;15.45;;;5.35;;
4096;SDS011;2062;50.694;7.246;2022-12-18T02:49:13;14.63;;;5.35;;
4096;SDS011;2062;50.694;7.246;2022-12-18T02:51:53;16.08;;;5.38;;
4096;SDS011;2062;50.694;7.246;2022-12-18T02:54:32;17.80;;;5.45;;
4096;SDS011;2062;50.694;7.246;2022-12-18T02:57:13;14.00;;;5.03;;
4096;SDS011;2062;50.694;7.246;2022-12-18T02:59:46;15.95;;;5.32;;
4096;SDS011;2062;50.694;7.246;2022-12-18T03:02:19;14.20;;;5.40;;
4096;SDS011;2062;50.694;7.246;2022-12-18T03:04:53;15.02;;;6.28;;
4096;SDS011;2062;50.694;7.246;2022-12-18T03:07:26;16.15;;;5.68;;
4096;SDS011;2062;50.694;7.246;2022-12-18T03:10:00;14.93;;;5.37;;
4096;SDS011;2062;50.694;7.246;2022-12-18T03:12:30;17.48;;;6.40;;
4096;SDS011;2062;50.694;7.246;2022-12-18T03:15:01;15.68;;;5.43;;
4096;SDS011;2062;50.694;7.246;2022-12-18T03:17:31;17.45;;;5.78;;
4096;SDS011;2062;50.694;7.246;2022-12-18T03:20:01;13.20;;;5.25;;
4096;SDS011;2062;50.694;7.246;2022-12-18T03:22:32;16.73;;;5.63;;
4096;SDS011;2062;50.694;7.246;2022-12-18T03:25:00;19.63;;;6.57;;
4096;SDS011;2062;50.694;7.246;2022-12-18T03:27:31;17.83;;;6.65;;
4096;SDS011;2062;50.694;7.246;2022-12-18T03:30:03;14.27;;;5.75;;
4096;SDS011;2062;50.694;7.246;2022-12-18T03:32:33;14.18;;;5.90;;
4096;SDS011;2062;50.694;7.246;2022-12-18T03:35:05;16.37;;;6.43;;
4096;SDS011;2062;50.694;7.246;2022-12-18T03:37:35;18.70;;;6.18;;
4096;SDS011;2062;50.694;7.246;2022-12-18T03:40:02;18.00;;;7.03;;
4096;SDS011;2062;50.694;7.246;2022-12-18T03:42:32;17.05;;;5.93;;
4096;SDS011;2062;50.694;7.246;2022-12-18T03:45:09;16.83;;;5.88;;
4096;SDS011;2062;50.694;7.246;2022-12-18T03:47:40;16.47;;;6.10;;
4096;SDS011;2062;50.694;7.246;2022-12-18T03:50:15;18.35;;;6.78;;
4096;SDS011;2062;50.694;7.246;2022-12-18T03:52:48;18.42;;;6.63;;
4096;SDS011;2062;50.694;7.246;2022-12-18T03:55:18;19.08;;;6.30;;
4096;SDS011;2062;50.694;7.246;2022-12-18T03:57:49;21.33;;;6.47;;
4096;SDS011;2062;50.694;7.246;2022-12-18T04:00:18;20.77;;;6.50;;
4096;SDS011;2062;50.694;7.246;2022-12-18T04:02:45;17.02;;;6.40;;
4096;SDS011;2062;50.694;7.246;2022-12-18T04:05:16;17.58;;;6.78;;
4096;SDS011;2062;50.694;7.246;2022-12-18T04:07:45;20.58;;;6.97;;
4096;SDS011;2062;50.694;7.246;2022-12-18T04:10:15;14.82;;;6.10;;
4096;SDS011;2062;50.694;7.246;2022-12-18T04:12:42;17.97;;;6.67;;
4096;SDS011;2062;50.694;7.246;2022-12-18T04:15:11;16.55;;;6.22;;
4096;SDS011;2062;50.694;7.246;2022-12-18T04:17:39;18.27;;;7.05;;
4096;SDS011;2062;50.694;7.246;2022-12-18T04:20:13;17.38;;;6.75;;
4096;SDS011;2062;50.694;7.246;2022-12-18T04:22:41;17.45;;;6.28;;
4096;SDS011;2062;50.694;7.246;2022-12-18T04:25:08;19.93;;;6.93;;
4096;SDS011;2062;50.694;7.246;2022-12-18T04:27:35;15.60;;;6.28;;
4096;SDS011;2062;50.694;7.246;2022-12-18T04:30:01;20.13;;;7.05;;
4096;SDS011;2062;50.694;7.246;2022-12-18T04:32:30;18.92;;;7.15;;
4096;SDS011;2062;50.694;7.246;2022-12-18T04:34:59;18.23;;;6.22;;
4096;SDS011;2062;50.694;7.246;2022-12-18T04:37:25;17.23;;;6.33;;
4096;SDS011;2062;50.694;7.246;2022-12-18T04:39:52;16.13;;;6.55;;
4096;SDS011;2062;50.694;7.246;2022-12-18T04:42:19;17.92;;;6.72;;
4096;SDS011;2062;50.694;7.246;2022-12-18T04:44:45;20.75;;;6.90;;
4096;SDS011;2062;50.694;7.246;2022-12-18T04:47:12;20.13;;;6.85;;
4096;SDS011;2062;50.694;7.246;2022-12-18T04:49:40;20.50;;;7.60;;
4096;SDS011;2062;50.694;7.246;2022-12-18T04:52:07;19.77;;;7.68;;
4096;SDS011;2062;50.694;7.246;2022-12-18T04:54:34;22.45;;;7.18;;
4096;SDS011;2062;50.694;7.246;2022-12-18T04:57:01;22.20;;;8.43;;
4096;SDS011;2062;50.694;7.246;2022-12-18T04:59:27;20.67;;;7.93;;
4096;SDS011;2062;50.694;7.246;2022-12-18T05:01:54;19.10;;;7.53;;
4096;SDS011;2062;50.694;7.246;2022-12-18T05:04:21;20.13;;;7.35;;
4096;SDS011;2062;50.694;7.246;2022-12-18T05:06:49;21.52;;;7.45;;
4096;SDS011;2062;50.694;7.246;2022-12-18T05:09:16;20.63;;;7.50;;
4096;SDS011;2062;50.694;7.246;2022-12-18T05:11:43;18.33;;;7.38;;
4096;SDS011;2062;50.694;7.246;2022-12-18T05:14:10;20.67;;;6.87;;
4096;SDS011;2062;50.694;7.246;2022-12-18T05:16:37;21.73;;;7.50;;
4096;SDS011;2062;50.694;7.246;2022-12-18T05:19:04;20.02;;;6.68;;
4096;SDS011;2062;50.694;7.246;2022-12-18T05:21:30;22.30;;;8.32;;
4096;SDS011;2062;50.694;7.246;2022-12-18T05:23:58;22.23;;;7.50;;
4096;SDS011;2062;50.694;7.246;2022-12-18T05:26:25;20.20;;;6.97;;
4096;SDS011;2062;50.694;7.246;2022-12-18T05:28:52;21.73;;;7.32;;
4096;SDS011;2062;50.694;7.246;2022-12-18T05:31:19;20.10;;;7.90;;
4096;SDS011;2062;50.694;7.246;2022-12-18T05:33:45;16.05;;;6.75;;
4096;SDS011;2062;50.694;7.246;2022-12-18T05:36:15;20.58;;;7.00;;
4096;SDS011;2062;50.694;7.246;2022-12-18T05:38:42;17.70;;;7.03;;
4096;SDS011;2062;50.694;7.246;2022-12-18T05:41:13;18.70;;;6.95;;
4096;SDS011;2062;50.694;7.246;2022-12-18T05:43:40;21.67;;;7.22;;
4096;SDS011;2062;50.694;7.246;2022-12-18T05:46:08;20.20;;;7.47;;
4096;SDS011;2062;50.694;7.246;2022-12-18T05:48:37;18.77;;;7.03;;
4096;SDS011;2062;50.694;7.246;2022-12-18T05:51:05;23.90;;;7.77;;
4096;SDS011;2062;50.694;7.246;2022-12-18T05:53:33;21.50;;;7.53;;
4096;SDS011;2062;50.694;7.246;2022-12-18T05:56:01;20.98;;;6.95;;
4096;SDS011;2062;50.694;7.246;2022-12-18T05:58:30;21.42;;;7.63;;
4096;SDS011;2062;50.694;7.246;2022-12-18T06:01:05;23.30;;;7.78;;
4096;SDS011;2062;50.694;7.246;2022-12-18T06:03:33;20.70;;;6.83;;
4096;SDS011;2062;50.694;7.246;2022-12-18T06:06:00;20.77;;;6.75;;
4096;SDS011;2062;50.694;7.246;2022-12-18T06:08:27;19.92;;;7.45;;
4096;SDS011;2062;50.694;7.246;2022-12-18T06:10:53;21.95;;;7.85;;
4096;SDS011;2062;50.694;7.246;2022-12-18T06:13:20;17.85;;;6.10;;
4096;SDS011;2062;50.694;7.246;2022-12-18T06:15:49;19.27;;;7.10;;
4096;SDS011;2062;50.694;7.246;2022-12-18T06:18:16;16.20;;;6.13;;
4096;SDS011;2062;50.694;7.246;2022-12-18T06:20:43;20.45;;;6.90;;
4096;SDS011;2062;50.694;7.246;2022-12-18T06:23:10;18.02;;;6.43;;
4096;SDS011;2062;50.694;7.246;2022-12-18T06:25:37;22.17;;;7.82;;
4096;SDS011;2062;50.694;7.246;2022-12-18T06:28:04;19.93;;;6.83;;
4096;SDS011;2062;50.694;7.246;2022-12-18T06:30:31;19.60;;;6.57;;
4096;SDS011;2062;50.694;7.246;2022-12-18T06:33:00;16.90;;;5.80;;
4096;SDS011;2062;50.694;7.246;2022-12-18T06:35:26;17.63;;;6.25;;
4096;SDS011;2062;50.694;7.246;2022-12-18T06:37:53;19.67;;;6.13;;
4096;SDS011;2062;50.694;7.246;2022-12-18T06:40:20;15.50;;;6.33;;
4096;SDS011;2062;50.694;7.246;2022-12-18T06:42:47;17.95;;;5.88;;
4096;SDS011;2062;50.694;7.246;2022-12-18T06:45:15;19.55;;;7.22;;
4096;SDS011;2062;50.694;7.246;2022-12-18T06:47:42;20.67;;;7.07;;
4096;SDS011;2062;50.694;7.246;2022-12-18T06:50:10;19.48;;;5.63;;
4096;SDS011;2062;50.694;7.246;2022-12-18T06:52:38;19.10;;;6.53;;
4096;SDS011;2062;50.694;7.246;2022-12-18T06:55:05;18.80;;;6.40;;
4096;SDS011;2062;50.694;7.246;2022-12-18T06:57:33;21.52;;;6.57;;
4096;SDS011;2062;50.694;7.246;2022-12-18T07:00:00;15.98;;;6.25;;
4096;SDS011;2062;50.694;7.246;2022-12-18T07:02:27;16.30;;;6.60;;
4096;SDS011;2062;50.694;7.246;2022-12-18T07:04:54;15.60;;;6.13;;
4096;SDS011;2062;50.694;7.246;2022-12-18T07:07:22;17.63;;;6.32;;
4096;SDS011;2062;50.694;7.246;2022-12-18T07:09:49;20.75;;;7.20;;
4096;SDS011;2062;50.694;7.246;2022-12-18T07:12:16;18.05;;;7.05;;
4096;SDS011;2062;50.694;7.246;2022-12-18T07:14:44;21.92;;;8.63;;
4096;SDS011;2062;50.694;7.246;2022-12-18T07:17:10;24.27;;;9.33;;
4096;SDS011;2062;50.694;7.246;2022-12-18T07:19:37;21.80;;;8.73;;
4096;SDS011;2062;50.694;7.246;2022-12-18T07:22:04;39.42;;;15.82;;
4096;SDS011;2062;50.694;7.246;2022-12-18T07:24:33;28.65;;;12.82;;
4096;SDS011;2062;50.694;7.246;2022-12-18T07:27:00;37.78;;;14.80;;
4096;SDS011;2062;50.694;7.246;2022-12-18T07:29:27;42.20;;;18.37;;
4096;SDS011;2062;50.694;7.246;2022-12-18T07:31:53;33.65;;;15.18;;
4096;SDS011;2062;50.694;7.246;2022-12-18T07:34:20;29.70;;;13.13;;
4096;SDS011;2062;50.694;7.246;2022-12-18T07:36:47;28.02;;;9.57;;
4096;SDS011;2062;50.694;7.246;2022-12-18T07:39:14;23.58;;;9.50;;
4096;SDS011;2062;50.694;7.246;2022-12-18T07:41:42;25.33;;;8.67;;
4096;SDS011;2062;50.694;7.246;2022-12-18T07:44:29;23.42;;;9.25;;
4096;SDS011;2062;50.694;7.246;2022-12-18T07:46:55;22.35;;;8.77;;
4096;SDS011;2062;50.694;7.246;2022-12-18T07:49:22;22.90;;;9.38;;
4096;SDS011;2062;50.694;7.246;2022-12-18T07:51:49;23.63;;;9.68;;
4096;SDS011;2062;50.694;7.246;2022-12-18T07:54:16;32.80;;;12.27;;
4096;SDS011;2062;50.694;7.246;2022-12-18T07:56:44;31.23;;;11.60;;
4096;SDS011;2062;50.694;7.246;2022-12-18T07:59:10;34.42;;;14.20;;
4096;SDS011;2062;50.694;7.246;2022-12-18T08:01:37;30.17;;;11.77;;
4096;SDS011;2062;50.694;7.246;2022-12-18T08:04:04;22.02;;;9.70;;
4096;SDS011;2062;50.694;7.246;2022-12-18T08:06:31;22.97;;;9.50;;
4096;SDS011;2062;50.694;7.246;2022-12-18T08:08:58;30.02;;;10.23;;
4096;SDS011;2062;50.694;7.246;2022-12-18T08:11:26;23.13;;;9.00;;
4096;SDS011;2062;50.694;7.246;2022-12-18T08:13:55;22.08;;;8.35;;
4096;SDS011;2062;50.694;7.246;2022-12-18T08:16:23;21.10;;;8.32;;
4096;SDS011;2062;50.694;7.246;2022-12-18T08:18:51;19.53;;;8.17;;
4096;SDS011;2062;50.694;7.246;2022-12-18T08:21:22;22.40;;;8.25;;
4096;SDS011;2062;50.694;7.246;2022-12-18T08:23:51;21.40;;;8.40;;
4096;SDS011;2062;50.694;7.246;2022-12-18T08:26:19;24.92;;;9.10;;
4096;SDS011;2062;50.694;7.246;2022-12-18T08:28:47;24.13;;;8.35;;
4096;SDS011;2062;50.694;7.246;2022-12-18T08:31:15;20.80;;;7.77;;
4096;SDS011;2062;50.694;7.246;2022-12-18T08:33:43;21.33;;;7.93;;
4096;SDS011;2062;50.694;7.246;2022-12-18T08:36:09;23.67;;;7.90;;
4096;SDS011;2062;50.694;7.246;2022-12-18T08:38:37;19.70;;;7.80;;
4096;SDS011;2062;50.694;7.246;2022-12-18T08:41:04;22.58;;;7.93;;
4096;SDS011;2062;50.694;7.246;2022-12-18T08:43:32;22.43;;;8.27;;
4096;SDS011;2062;50.694;7.246;2022-12-18T08:46:18;20.30;;;7.10;;
4096;SDS011;2062;50.694;7.246;2022-12-18T08:48:46;24.00;;;8.38;;
4096;SDS011;2062;50.694;7.246;2022-12-18T08:51:15;24.20;;;9.50;;
4096;SDS011;2062;50.694;7.246;2022-12-18T08:53:43;20.80;;;8.43;;
4096;SDS011;2062;50.694;7.246;2022-12-18T08:56:10;21.87;;;8.30;;
4096;SDS011;2062;50.694;7.246;2022-12-18T08:58:37;24.35;;;10.35;;
4096;SDS011;2062;50.694;7.246;2022-12-18T09:01:05;21.17;;;9.27;;
4096;SDS011;2062;50.694;7.246;2022-12-18T09:03:35;24.70;;;9.10;;
4096;SDS011;2062;50.694;7.246;2022-12-18T09:06:02;24.58;;;9.93;;
4096;SDS011;2062;50.694;7.246;2022-12-18T09:08:29;23.37;;;8.17;;
4096;SDS011;2062;50.694;7.246;2022-12-18T09:10:56;16.27;;;7.30;;
4096;SDS011;2062;50.694;7.246;2022-12-18T09:13:23;23.75;;;9.20;;
4096;SDS011;2062;50.694;7.246;2022-12-18T09:15:51;23.52;;;8.85;;
4096;SDS011;2062;50.694;7.246;2022-12-18T09:18:20;21.65;;;8.73;;
4096;SDS011;2062;50.694;7.246;2022-12-18T09:20:49;20.30;;;8.20;;
4096;SDS011;2062;50.694;7.246;2022-12-18T09:23:17;22.60;;;8.65;;
4096;SDS011;2062;50.694;7.246;2022-12-18T09:25:44;21.75;;;8.20;;
4096;SDS011;2062;50.694;7.246;2022-12-18T09:28:12;19.98;;;7.53;;
4096;SDS011;2062;50.694;7.246;2022-12-18T09:30:40;19.52;;;7.20;;
4096;SDS011;2062;50.694;7.246;2022-12-18T09:33:09;21.90;;;7.50;;
4096;SDS011;2062;50.694;7.246;2022-12-18T09:35:36;18.83;;;7.00;;
4096;SDS011;2062;50.694;7.246;2022-12-18T09:38:05;19.27;;;7.72;;
4096;SDS011;2062;50.694;7.246;2022-12-18T09:40:34;22.73;;;8.05;;
4096;SDS011;2062;50.694;7.246;2022-12-18T09:43:03;17.70;;;7.13;;
4096;SDS011;2062;50.694;7.246;2022-12-18T09:45:31;16.87;;;6.40;;
4096;SDS011;2062;50.694;7.246;2022-12-18T09:48:05;19.38;;;7.15;;
4096;SDS011;2062;50.694;7.246;2022-12-18T09:50:37;18.58;;;7.47;;
4096;SDS011;2062;50.694;7.246;2022-12-18T09:53:10;20.30;;;7.03;;
4096;SDS011;2062;50.694;7.246;2022-12-18T09:55:42;21.80;;;7.80;;
4096;SDS011;2062;50.694;7.246;2022-12-18T09:58:13;15.80;;;7.13;;
4096;SDS011;2062;50.694;7.246;2022-12-18T10:00:45;18.50;;;7.57;;
4096;SDS011;2062;50.694;7.246;2022-12-18T10:03:13;17.40;;;7.32;;
4096;SDS011;2062;50.694;7.246;2022-12-18T10:05:42;19.67;;;7.30;;
4096;SDS011;2062;50.694;7.246;2022-12-18T10:08:16;17.33;;;7.03;;
4096;SDS011;2062;50.694;7.246;2022-12-18T10:10:48;18.83;;;6.90;;
4096;SDS011;2062;50.694;7.246;2022-12-18T10:13:20;17.48;;;6.85;;
4096;SDS011;2062;50.694;7.246;2022-12-18T10:15:54;17.83;;;7.72;;
4096;SDS011;2062;50.694;7.246;2022-12-18T10:18:33;18.08;;;6.63;;
4096;SDS011;2062;50.694;7.246;2022-12-18T10:21:12;20.77;;;8.05;;
4096;SDS011;2062;50.694;7.246;2022-12-18T10:23:47;21.70;;;8.17;;
4096;SDS011;2062;50.694;7.246;2022-12-18T10:26:19;26.58;;;11.30;;
4096;SDS011;2062;50.694;7.246;2022-12-18T10:28:46;19.80;;;8.98;;
4096;SDS011;2062;50.694;7.246;2022-12-18T10:31:14;20.90;;;8.65;;
4096;SDS011;2062;50.694;7.246;2022-12-18T10:33:43;27.55;;;9.80;;
4096;SDS011;2062;50.694;7.246;2022-12-18T10:36:10;22.87;;;7.93;;
4096;SDS011;2062;50.694;7.246;2022-12-18T10:38:38;20.27;;;8.07;;
4096;SDS011;2062;50.694;7.246;2022-12-18T10:41:08;23.08;;;10.27;;
4096;SDS011;2062;50.694;7.246;2022-12-18T10:44:10;23.58;;;9.90;;
4096;SDS011;2062;50.694;7.246;2022-12-18T10:46:38;22.13;;;9.02;;
4096;SDS011;2062;50.694;7.246;2022-12-18T10:49:17;18.73;;;8.20;;
4096;SDS011;2062;50.694;7.246;2022-12-18T10:51:45;22.60;;;8.73;;
4096;SDS011;2062;50.694;7.246;2022-12-18T10:54:14;24.42;;;10.98;;
4096;SDS011;2062;50.694;7.246;2022-12-18T10:56:44;24.20;;;10.55;;
4096;SDS011;2062;50.694;7.246;2022-12-18T10:59:12;23.08;;;9.40;;
4096;SDS011;2062;50.694;7.246;2022-12-18T11:01:47;20.90;;;8.23;;
4096;SDS011;2062;50.694;7.246;2022-12-18T11:04:17;22.42;;;9.48;;
4096;SDS011;2062;50.694;7.246;2022-12-18T11:06:53;22.02;;;9.77;;
4096;SDS011;2062;50.694;7.246;2022-12-18T11:09:22;19.92;;;8.18;;
4096;SDS011;2062;50.694;7.246;2022-12-18T11:11:52;18.73;;;8.60;;
4096;SDS011;2062;50.694;7.246;2022-12-18T11:14:21;16.63;;;7.53;;
4096;SDS011;2062;50.694;7.246;2022-12-18T11:16:50;20.13;;;8.50;;
4096;SDS011;2062;50.694;7.246;2022-12-18T11:22:17;19.30;;;8.43;;
4096;SDS011;2062;50.694;7.246;2022-12-18T11:24:51;22.45;;;9.90;;
4096;SDS011;2062;50.694;7.246;2022-12-18T11:27:22;21.87;;;8.57;;
4096;SDS011;2062;50.694;7.246;2022-12-18T11:29:49;22.98;;;9.02;;
4096;SDS011;2062;50.694;7.246;2022-12-18T11:32:26;22.40;;;9.00;;
4096;SDS011;2062;50.694;7.246;2022-12-18T11:34:59;21.67;;;8.93;;
4096;SDS011;2062;50.694;7.246;2022-12-18T11:37:30;24.85;;;10.10;;
4096;SDS011;2062;50.694;7.246;2022-12-18T11:39:59;21.30;;;9.03;;
4096;SDS011;2062;50.694;7.246;2022-12-18T11:42:37;26.38;;;10.55;;
4096;SDS011;2062;50.694;7.246;2022-12-18T11:47:54;24.40;;;10.00;;
4096;SDS011;2062;50.694;7.246;2022-12-18T11:50:26;25.13;;;10.48;;
4096;SDS011;2062;50.694;7.246;2022-12-18T11:56:11;26.38;;;12.15;;
4096;SDS011;2062;50.694;7.246;2022-12-18T11:58:54;26.70;;;10.52;;
4096;SDS011;2062;50.694;7.246;2022-12-18T12:01:47;22.42;;;9.15;;
4096;SDS011;2062;50.694;7.246;2022-12-18T12:04:39;25.65;;;11.00;;
4096;SDS011;2062;50.694;7.246;2022-12-18T12:07:19;22.97;;;9.10;;
4096;SDS011;2062;50.694;7.246;2022-12-18T12:09:54;21.55;;;8.40;;
4096;SDS011;2062;50.694;7.246;2022-12-18T12:12:31;25.27;;;11.32;;
4096;SDS011;2062;50.694;7.246;2022-12-18T12:15:23;25.10;;;11.10;;
4096;SDS011;2062;50.694;7.246;2022-12-18T12:18:05;25.40;;;9.77;;
4096;SDS011;2062;50.694;7.246;2022-12-18T12:20:48;23.13;;;10.20;;
4096;SDS011;2062;50.694;7.246;2022-12-18T12:23:22;22.42;;;10.30;;
4096;SDS011;2062;50.694;7.246;2022-12-18T12:36:25;24.92;;;10.15;;
4096;SDS011;2062;50.694;7.246;2022-12-18T12:39:01;23.13;;;10.02;;
4096;SDS011;2062;50.694;7.246;2022-12-18T12:42:01;22.08;;;8.63;;
4096;SDS011;2062;50.694;7.246;2022-12-18T12:48:23;24.23;;;9.07;;
4096;SDS011;2062;50.694;7.246;2022-12-18T12:51:02;24.88;;;9.60;;
4096;SDS011;2062;50.694;7.246;2022-12-18T12:53:35;24.20;;;10.25;;
4096;SDS011;2062;50.694;7.246;2022-12-18T12:56:04;26.35;;;9.95;;
4096;SDS011;2062;50.694;7.246;2022-12-18T12:58:33;29.20;;;11.27;;
4096;SDS011;2062;50.694;7.246;2022-12-18T13:01:10;26.77;;;11.40;;
4096;SDS011;2062;50.694;7.246;2022-12-18T13:03:45;26.00;;;10.05;;
4096;SDS011;2062;50.694;7.246;2022-12-18T13:06:19;23.92;;;9.93;;
4096;SDS011;2062;50.694;7.246;2022-12-18T13:08:58;25.90;;;10.55;;
4096;SDS011;2062;50.694;7.246;2022-12-18T13:11:30;26.55;;;9.52;;
4096;SDS011;2062;50.694;7.246;2022-12-18T13:14:21;28.07;;;10.50;;
4096;SDS011;2062;50.694;7.246;2022-12-18T13:20:06;27.15;;;10.95;;
4096;SDS011;2062;50.694;7.246;2022-12-18T13:22:35;27.70;;;11.13;;
4096;SDS011;2062;50.694;7.246;2022-12-18T13:27:59;24.23;;;9.20;;
4096;SDS011;2062;50.694;7.246;2022-12-18T13:30:43;24.10;;;10.30;;
4096;SDS011;2062;50.694;7.246;2022-12-18T13:36:16;24.98;;;10.05;;
4096;SDS011;2062;50.694;7.246;2022-12-18T13:41:53;24.93;;;9.87;;
4096;SDS011;2062;50.694;7.246;2022-12-18T13:44:56;24.35;;;9.57;;
4096;SDS011;2062;50.694;7.246;2022-12-18T13:47:25;21.85;;;9.88;;
4096;SDS011;2062;50.694;7.246;2022-12-18T13:49:54;24.38;;;9.73;;
4096;SDS011;2062;50.694;7.246;2022-12-18T13:52:24;24.38;;;9.65;;
4096;SDS011;2062;50.694;7.246;2022-12-18T13:54:55;26.77;;;10.53;;
4096;SDS011;2062;50.694;7.246;2022-12-18T13:57:31;26.98;;;10.45;;
4096;SDS011;2062;50.694;7.246;2022-12-18T14:00:24;24.70;;;10.48;;
4096;SDS011;2062;50.694;7.246;2022-12-18T14:02:55;24.83;;;9.43;;
4096;SDS011;2062;50.694;7.246;2022-12-18T14:05:22;24.27;;;10.55;;
4096;SDS011;2062;50.694;7.246;2022-12-18T14:07:49;27.70;;;10.23;;
4096;SDS011;2062;50.694;7.246;2022-12-18T14:10:16;26.40;;;10.43;;
4096;SDS011;2062;50.694;7.246;2022-12-18T14:12:45;26.38;;;10.93;;
4096;SDS011;2062;50.694;7.246;2022-12-18T14:15:26;26.65;;;9.93;;
4096;SDS011;2062;50.694;7.246;2022-12-18T14:17:58;24.52;;;10.07;;
4096;SDS011;2062;50.694;7.246;2022-12-18T14:21:20;29.13;;;10.50;;
4096;SDS011;2062;50.694;7.246;2022-12-18T14:23:49;26.05;;;10.70;;
4096;SDS011;2062;50.694;7.246;2022-12-18T14:26:31;28.52;;;11.15;;
4096;SDS011;2062;50.694;7.246;2022-12-18T14:28:59;27.80;;;10.60;;
4096;SDS011;2062;50.694;7.246;2022-12-18T14:31:27;27.48;;;10.35;;
4096;SDS011;2062;50.694;7.246;2022-12-18T14:33:55;27.00;;;10.80;;
4096;SDS011;2062;50.694;7.246;2022-12-18T14:36:24;26.90;;;11.27;;
4096;SDS011;2062;50.694;7.246;2022-12-18T14:38:52;29.80;;;11.32;;
4096;SDS011;2062;50.694;7.246;2022-12-18T14:41:20;27.38;;;11.20;;
4096;SDS011;2062;50.694;7.246;2022-12-18T14:43:49;28.08;;;10.20;;
4096;SDS011;2062;50.694;7.246;2022-12-18T14:46:30;25.50;;;10.07;;
4096;SDS011;2062;50.694;7.246;2022-12-18T14:49:01;29.27;;;11.25;;
4096;SDS011;2062;50.694;7.246;2022-12-18T14:51:32;25.48;;;10.82;;
4096;SDS011;2062;50.694;7.246;2022-12-18T14:54:00;30.27;;;11.07;;
4096;SDS011;2062;50.694;7.246;2022-12-18T14:56:29;29.20;;;11.75;;
4096;SDS011;2062;50.694;7.246;2022-12-18T14:58:58;26.43;;;9.90;;
4096;SDS011;2062;50.694;7.246;2022-12-18T15:01:27;26.40;;;11.13;;
4096;SDS011;2062;50.694;7.246;2022-12-18T15:03:56;29.27;;;11.10;;
4096;SDS011;2062;50.694;7.246;2022-12-18T15:06:26;25.00;;;10.48;;
4096;SDS011;2062;50.694;7.246;2022-12-18T15:08:59;30.55;;;11.85;;
4096;SDS011;2062;50.694;7.246;2022-12-18T15:11:32;30.30;;;11.43;;
4096;SDS011;2062;50.694;7.246;2022-12-18T15:17:03;29.27;;;11.02;;
4096;SDS011;2062;50.694;7.246;2022-12-18T15:19:34;28.67;;;10.95;;
4096;SDS011;2062;50.694;7.246;2022-12-18T15:22:05;31.85;;;11.55;;
4096;SDS011;2062;50.694;7.246;2022-12-18T15:24:47;27.50;;;10.90;;
4096;SDS011;2062;50.694;7.246;2022-12-18T15:27:21;31.00;;;11.43;;
4096;SDS011;2062;50.694;7.246;2022-12-18T15:32:48;27.65;;;10.43;;
4096;SDS011;2062;50.694;7.246;2022-12-18T15:35:18;29.63;;;11.00;;
4096;SDS011;2062;50.694;7.246;2022-12-18T15:37:48;29.53;;;11.27;;
4096;SDS011;2062;50.694;7.246;2022-12-18T15:40:15;29.67;;;12.30;;
4096;SDS011;2062;50.694;7.246;2022-12-18T15:42:44;29.70;;;11.75;;
4096;SDS011;2062;50.694;7.246;2022-12-18T15:45:29;27.17;;;11.35;;
4096;SDS011;2062;50.694;7.246;2022-12-18T15:47:56;32.17;;;11.02;;
4096;SDS011;2062;50.694;7.246;2022-12-18T15:50:23;30.73;;;11.63;;
4096;SDS011;2062;50.694;7.246;2022-12-18T15:52:51;32.15;;;11.55;;
4096;SDS011;2062;50.694;7.246;2022-12-18T15:55:21;28.15;;;10.77;;
4096;SDS011;2062;50.694;7.246;2022-12-18T15:58:07;28.77;;;11.43;;
4096;SDS011;2062;50.694;7.246;2022-12-18T16:00:36;27.88;;;11.35;;
4096;SDS011;2062;50.694;7.246;2022-12-18T16:03:04;27.50;;;11.07;;